createdAt,value
2016-06-20T13:06:21.300Z,60.8
2016-06-20T13:07:21.178Z,61.48
2016-06-20T13:08:20.979Z,61.87
2016-06-20T13:09:20.952Z,61.51
2016-06-20T13:10:20.924Z,61.41
2016-06-20T13:11:20.911Z,61.9
2016-06-20T13:12:21.164Z,61.64
2016-06-20T13:13:23.903Z,61.93
2016-06-20T13:14:20.844Z,62.02
2016-06-20T13:15:21.487Z,62.02
2016-06-20T13:16:20.865Z,62.22
2016-06-20T13:17:21.198Z,62.41
2016-06-20T13:18:21.420Z,62.89
2016-06-20T13:19:20.798Z,62.92
2016-06-20T13:20:26.598Z,62.63
2016-06-20T13:21:20.915Z,62.82
2016-06-20T13:22:21.012Z,63.21
2016-06-20T13:23:20.751Z,63.21
2016-06-20T13:24:20.691Z,63.12
2016-06-20T13:25:20.632Z,63.31
2016-06-20T13:26:25.261Z,63.15
2016-06-20T14:21:05.685Z,65.01
2016-06-20T14:22:04.085Z,64.43
2016-06-20T14:24:03.388Z,64.34
2016-06-20T14:25:02.926Z,64.53
2016-06-20T14:27:18.442Z,65.2
2016-06-20T14:28:17.710Z,65.11
2016-06-20T14:29:03.415Z,65.01
2016-06-20T14:30:03.045Z,65.11
2016-06-20T14:31:03.003Z,64.82
2016-06-20T14:32:02.759Z,65.3
2016-06-20T14:33:03.017Z,65.3
2016-06-20T14:34:03.515Z,65.2
2016-06-20T14:35:06.729Z,65.3
2016-06-20T14:36:04.165Z,65.11
2016-06-20T14:39:45.244Z,65.3
2016-06-20T14:41:40.087Z,65.5
2016-06-20T14:42:43.777Z,65.2
2016-06-20T14:43:51.860Z,65.5
2016-06-20T14:44:40.002Z,65.4
2016-06-20T14:56:00.446Z,65.75
2016-06-20T14:56:57.628Z,65.98
2016-06-20T14:57:57.302Z,65.47
